sensor_id;sensor_type;location;lat;lon;timestamp;P1;durP1;ratioP1;P2;durP2;ratioP2
17997;SDS011;9124;48.144;17.098;2022-07-23T00:02:00;6.28;;;5.55;;
17997;SDS011;9124;48.144;17.098;2022-07-23T00:05:37;5.57;;;5.10;;
17997;SDS011;9124;48.144;17.098;2022-07-23T00:09:14;6.38;;;5.88;;
17997;SDS011;9124;48.144;17.098;2022-07-23T00:12:51;5.82;;;5.38;;
17997;SDS011;9124;48.144;17.098;2022-07-23T00:16:27;6.32;;;5.93;;
17997;SDS011;9124;48.144;17.098;2022-07-23T00:20:07;7.30;;;5.05;;
17997;SDS011;9124;48.144;17.098;2022-07-23T00:23:44;6.13;;;5.72;;
17997;SDS011;9124;48.144;17.098;2022-07-23T00:27:21;5.78;;;5.30;;
17997;SDS011;9124;48.144;17.098;2022-07-23T00:30:58;7.47;;;5.90;;
17997;SDS011;9124;48.144;17.098;2022-07-23T00:34:35;5.63;;;5.28;;
17997;SDS011;9124;48.144;17.098;2022-07-23T00:38:11;6.13;;;5.32;;
17997;SDS011;9124;48.144;17.098;2022-07-23T00:41:49;5.18;;;4.78;;
17997;SDS011;9124;48.144;17.098;2022-07-23T00:45:26;10.00;;;5.75;;
17997;SDS011;9124;48.144;17.098;2022-07-23T00:49:03;6.05;;;5.25;;
17997;SDS011;9124;48.144;17.098;2022-07-23T00:52:40;5.90;;;5.40;;
17997;SDS011;9124;48.144;17.098;2022-07-23T00:56:17;6.68;;;6.20;;
17997;SDS011;9124;48.144;17.098;2022-07-23T00:59:54;6.40;;;5.80;;
17997;SDS011;9124;48.144;17.098;2022-07-23T01:03:31;5.65;;;5.25;;
17997;SDS011;9124;48.144;17.098;2022-07-23T01:07:08;6.03;;;5.53;;
17997;SDS011;9124;48.144;17.098;2022-07-23T01:10:46;5.35;;;4.95;;
17997;SDS011;9124;48.144;17.098;2022-07-23T01:14:25;6.15;;;5.70;;
17997;SDS011;9124;48.144;17.098;2022-07-23T01:18:03;6.22;;;5.72;;
17997;SDS011;9124;48.144;17.098;2022-07-23T01:21:43;6.50;;;6.10;;
17997;SDS011;9124;48.144;17.098;2022-07-23T01:25:24;6.55;;;6.05;;
17997;SDS011;9124;48.144;17.098;2022-07-23T01:29:11;6.85;;;6.30;;
17997;SDS011;9124;48.144;17.098;2022-07-23T01:32:49;8.73;;;5.90;;
17997;SDS011;9124;48.144;17.098;2022-07-23T01:36:26;6.68;;;6.07;;
17997;SDS011;9124;48.144;17.098;2022-07-23T01:40:04;6.53;;;6.03;;
17997;SDS011;9124;48.144;17.098;2022-07-23T01:43:42;6.95;;;6.40;;
17997;SDS011;9124;48.144;17.098;2022-07-23T01:47:19;6.60;;;6.20;;
17997;SDS011;9124;48.144;17.098;2022-07-23T01:51:00;6.95;;;6.15;;
17997;SDS011;9124;48.144;17.098;2022-07-23T01:54:51;6.95;;;6.30;;
17997;SDS011;9124;48.144;17.098;2022-07-23T01:58:28;6.93;;;6.00;;
17997;SDS011;9124;48.144;17.098;2022-07-23T02:02:06;7.18;;;6.68;;
17997;SDS011;9124;48.144;17.098;2022-07-23T02:05:43;6.80;;;6.40;;
17997;SDS011;9124;48.144;17.098;2022-07-23T02:09:20;6.55;;;6.05;;
17997;SDS011;9124;48.144;17.098;2022-07-23T02:12:57;7.05;;;6.55;;
17997;SDS011;9124;48.144;17.098;2022-07-23T02:16:33;6.57;;;5.75;;
17997;SDS011;9124;48.144;17.098;2022-07-23T02:20:12;12.95;;;6.10;;
17997;SDS011;9124;48.144;17.098;2022-07-23T02:23:49;7.60;;;6.90;;
17997;SDS011;9124;48.144;17.098;2022-07-23T02:27:26;6.95;;;6.30;;
17997;SDS011;9124;48.144;17.098;2022-07-23T02:31:04;7.65;;;6.15;;
17997;SDS011;9124;48.144;17.098;2022-07-23T02:34:44;6.10;;;5.55;;
17997;SDS011;9124;48.144;17.098;2022-07-23T02:38:21;5.85;;;5.28;;
17997;SDS011;9124;48.144;17.098;2022-07-23T02:41:59;6.40;;;6.00;;
17997;SDS011;9124;48.144;17.098;2022-07-23T02:45:35;5.53;;;5.22;;
17997;SDS011;9124;48.144;17.098;2022-07-23T02:49:12;5.72;;;5.43;;
17997;SDS011;9124;48.144;17.098;2022-07-23T02:52:49;6.40;;;5.90;;
17997;SDS011;9124;48.144;17.098;2022-07-23T02:56:26;6.07;;;5.57;;
17997;SDS011;9124;48.144;17.098;2022-07-23T03:00:03;6.07;;;5.38;;
17997;SDS011;9124;48.144;17.098;2022-07-23T03:03:41;6.75;;;6.20;;
17997;SDS011;9124;48.144;17.098;2022-07-23T03:07:18;5.90;;;5.45;;
17997;SDS011;9124;48.144;17.098;2022-07-23T03:10:54;8.32;;;6.25;;
17997;SDS011;9124;48.144;17.098;2022-07-23T03:14:32;5.72;;;5.38;;
17997;SDS011;9124;48.144;17.098;2022-07-23T03:18:08;6.18;;;5.57;;
17997;SDS011;9124;48.144;17.098;2022-07-23T03:21:45;6.63;;;6.05;;
17997;SDS011;9124;48.144;17.098;2022-07-23T03:25:22;6.47;;;5.88;;
17997;SDS011;9124;48.144;17.098;2022-07-23T03:29:00;6.40;;;5.88;;
17997;SDS011;9124;48.144;17.098;2022-07-23T03:32:38;6.32;;;5.93;;
17997;SDS011;9124;48.144;17.098;2022-07-23T03:36:15;6.70;;;6.00;;
17997;SDS011;9124;48.144;17.098;2022-07-23T03:39:54;7.25;;;5.85;;
17997;SDS011;9124;48.144;17.098;2022-07-23T03:43:31;6.22;;;5.72;;
17997;SDS011;9124;48.144;17.098;2022-07-23T03:47:08;6.20;;;5.72;;
17997;SDS011;9124;48.144;17.098;2022-07-23T03:50:45;6.53;;;5.93;;
17997;SDS011;9124;48.144;17.098;2022-07-23T03:54:22;6.70;;;6.20;;
17997;SDS011;9124;48.144;17.098;2022-07-23T03:57:59;7.88;;;6.40;;
17997;SDS011;9124;48.144;17.098;2022-07-23T04:01:35;7.10;;;6.68;;
17997;SDS011;9124;48.144;17.098;2022-07-23T04:05:13;9.23;;;7.00;;
17997;SDS011;9124;48.144;17.098;2022-07-23T04:08:52;7.45;;;6.78;;
17997;SDS011;9124;48.144;17.098;2022-07-23T04:12:29;7.50;;;6.97;;
17997;SDS011;9124;48.144;17.098;2022-07-23T04:16:06;9.55;;;6.88;;
17997;SDS011;9124;48.144;17.098;2022-07-23T04:19:44;7.60;;;7.00;;
17997;SDS011;9124;48.144;17.098;2022-07-23T04:23:24;7.97;;;6.80;;
17997;SDS011;9124;48.144;17.098;2022-07-23T04:27:01;9.15;;;7.20;;
17997;SDS011;9124;48.144;17.098;2022-07-23T04:30:42;7.35;;;6.70;;
17997;SDS011;9124;48.144;17.098;2022-07-23T04:34:20;11.48;;;7.15;;
17997;SDS011;9124;48.144;17.098;2022-07-23T04:37:58;7.35;;;6.75;;
17997;SDS011;9124;48.144;17.098;2022-07-23T04:41:35;7.97;;;7.38;;
17997;SDS011;9124;48.144;17.098;2022-07-23T04:45:12;8.20;;;7.40;;
17997;SDS011;9124;48.144;17.098;2022-07-23T04:48:49;10.43;;;9.18;;
17997;SDS011;9124;48.144;17.098;2022-07-23T04:52:27;11.20;;;10.25;;
17997;SDS011;9124;48.144;17.098;2022-07-23T04:56:05;18.95;;;17.30;;
17997;SDS011;9124;48.144;17.098;2022-07-23T04:59:42;21.63;;;19.23;;
17997;SDS011;9124;48.144;17.098;2022-07-23T05:03:20;21.80;;;18.58;;
17997;SDS011;9124;48.144;17.098;2022-07-23T05:06:57;19.42;;;17.75;;
17997;SDS011;9124;48.144;17.098;2022-07-23T05:10:34;15.85;;;14.65;;
17997;SDS011;9124;48.144;17.098;2022-07-23T05:14:13;14.05;;;13.05;;
17997;SDS011;9124;48.144;17.098;2022-07-23T05:17:51;13.52;;;12.65;;
17997;SDS011;9124;48.144;17.098;2022-07-23T05:21:29;11.82;;;10.88;;
17997;SDS011;9124;48.144;17.098;2022-07-23T05:25:06;10.88;;;9.27;;
17997;SDS011;9124;48.144;17.098;2022-07-23T05:28:43;9.30;;;8.27;;
17997;SDS011;9124;48.144;17.098;2022-07-23T05:32:20;13.65;;;7.72;;
17997;SDS011;9124;48.144;17.098;2022-07-23T05:36:06;8.18;;;7.57;;
17997;SDS011;9124;48.144;17.098;2022-07-23T05:39:46;7.90;;;7.28;;
17997;SDS011;9124;48.144;17.098;2022-07-23T05:43:23;8.05;;;7.30;;
17997;SDS011;9124;48.144;17.098;2022-07-23T05:47:00;8.00;;;7.28;;
17997;SDS011;9124;48.144;17.098;2022-07-23T05:50:38;7.65;;;7.05;;
17997;SDS011;9124;48.144;17.098;2022-07-23T05:54:28;8.02;;;7.55;;
17997;SDS011;9124;48.144;17.098;2022-07-23T05:58:05;7.75;;;7.25;;
17997;SDS011;9124;48.144;17.098;2022-07-23T06:01:43;13.25;;;7.82;;
17997;SDS011;9124;48.144;17.098;2022-07-23T06:05:21;8.40;;;7.80;;
17997;SDS011;9124;48.144;17.098;2022-07-23T06:08:59;7.88;;;7.28;;
17997;SDS011;9124;48.144;17.098;2022-07-23T06:12:36;8.32;;;7.72;;
17997;SDS011;9124;48.144;17.098;2022-07-23T06:16:15;8.10;;;7.60;;
17997;SDS011;9124;48.144;17.098;2022-07-23T06:19:51;7.90;;;7.40;;
17997;SDS011;9124;48.144;17.098;2022-07-23T06:23:28;8.32;;;7.82;;
17997;SDS011;9124;48.144;17.098;2022-07-23T06:27:06;8.13;;;7.63;;
17997;SDS011;9124;48.144;17.098;2022-07-23T06:30:45;8.18;;;7.50;;
17997;SDS011;9124;48.144;17.098;2022-07-23T06:34:21;8.23;;;7.57;;
17997;SDS011;9124;48.144;17.098;2022-07-23T06:38:01;7.38;;;6.97;;
17997;SDS011;9124;48.144;17.098;2022-07-23T06:41:38;6.28;;;5.93;;
17997;SDS011;9124;48.144;17.098;2022-07-23T06:45:15;8.20;;;7.00;;
17997;SDS011;9124;48.144;17.098;2022-07-23T06:48:52;7.43;;;6.78;;
17997;SDS011;9124;48.144;17.098;2022-07-23T06:52:28;7.10;;;6.70;;
17997;SDS011;9124;48.144;17.098;2022-07-23T06:56:05;7.53;;;7.03;;
17997;SDS011;9124;48.144;17.098;2022-07-23T06:59:43;7.15;;;6.75;;
17997;SDS011;9124;48.144;17.098;2022-07-23T07:03:19;7.95;;;7.32;;
17997;SDS011;9124;48.144;17.098;2022-07-23T07:06:56;8.82;;;6.47;;
17997;SDS011;9124;48.144;17.098;2022-07-23T07:10:33;6.75;;;6.25;;
17997;SDS011;9124;48.144;17.098;2022-07-23T07:14:10;6.78;;;6.38;;
17997;SDS011;9124;48.144;17.098;2022-07-23T07:17:46;6.38;;;6.03;;
17997;SDS011;9124;48.144;17.098;2022-07-23T07:21:23;6.45;;;6.05;;
17997;SDS011;9124;48.144;17.098;2022-07-23T07:25:00;6.50;;;6.15;;
17997;SDS011;9124;48.144;17.098;2022-07-23T07:28:37;6.90;;;6.40;;
17997;SDS011;9124;48.144;17.098;2022-07-23T07:32:14;7.10;;;6.60;;
17997;SDS011;9124;48.144;17.098;2022-07-23T07:35:51;6.35;;;5.95;;
17997;SDS011;9124;48.144;17.098;2022-07-23T07:39:27;5.80;;;5.50;;
17997;SDS011;9124;48.144;17.098;2022-07-23T07:43:04;6.10;;;5.80;;
17997;SDS011;9124;48.144;17.098;2022-07-23T07:46:41;6.07;;;5.72;;
17997;SDS011;9124;48.144;17.098;2022-07-23T07:50:18;5.70;;;5.10;;
17997;SDS011;9124;48.144;17.098;2022-07-23T07:53:57;6.10;;;5.80;;
17997;SDS011;9124;48.144;17.098;2022-07-23T07:57:33;5.85;;;5.55;;
17997;SDS011;9124;48.144;17.098;2022-07-23T08:01:10;6.68;;;6.28;;
17997;SDS011;9124;48.144;17.098;2022-07-23T08:04:47;6.65;;;6.28;;
17997;SDS011;9124;48.144;17.098;2022-07-23T08:08:25;6.07;;;5.78;;
17997;SDS011;9124;48.144;17.098;2022-07-23T08:12:01;6.38;;;5.97;;
17997;SDS011;9124;48.144;17.098;2022-07-23T08:15:38;5.68;;;5.38;;
17997;SDS011;9124;48.144;17.098;2022-07-23T08:19:15;6.10;;;5.80;;
17997;SDS011;9124;48.144;17.098;2022-07-23T08:22:56;5.32;;;5.03;;
17997;SDS011;9124;48.144;17.098;2022-07-23T08:26:35;5.32;;;5.03;;
17997;SDS011;9124;48.144;17.098;2022-07-23T08:30:12;5.60;;;5.30;;
17997;SDS011;9124;48.144;17.098;2022-07-23T08:33:49;5.43;;;5.15;;
17997;SDS011;9124;48.144;17.098;2022-07-23T08:37:26;6.03;;;5.63;;
17997;SDS011;9124;48.144;17.098;2022-07-23T08:41:02;5.63;;;5.32;;
17997;SDS011;9124;48.144;17.098;2022-07-23T08:44:44;5.40;;;5.10;;
17997;SDS011;9124;48.144;17.098;2022-07-23T08:48:23;5.90;;;5.60;;
17997;SDS011;9124;48.144;17.098;2022-07-23T08:52:02;5.65;;;5.15;;
17997;SDS011;9124;48.144;17.098;2022-07-23T08:55:39;5.63;;;5.32;;
17997;SDS011;9124;48.144;17.098;2022-07-23T08:59:16;5.45;;;5.15;;
17997;SDS011;9124;48.144;17.098;2022-07-23T09:02:53;5.50;;;5.20;;
17997;SDS011;9124;48.144;17.098;2022-07-23T09:06:30;6.07;;;5.75;;
17997;SDS011;9124;48.144;17.098;2022-07-23T09:10:08;5.55;;;5.25;;
17997;SDS011;9124;48.144;17.098;2022-07-23T09:13:47;5.28;;;4.97;;
17997;SDS011;9124;48.144;17.098;2022-07-23T09:17:47;5.97;;;5.57;;
17997;SDS011;9124;48.144;17.098;2022-07-23T09:21:31;5.57;;;5.28;;
17997;SDS011;9124;48.144;17.098;2022-07-23T09:25:18;5.38;;;5.07;;
17997;SDS011;9124;48.144;17.098;2022-07-23T09:29:00;5.53;;;5.22;;
17997;SDS011;9124;48.144;17.098;2022-07-23T09:32:42;5.05;;;4.70;;
17997;SDS011;9124;48.144;17.098;2022-07-23T09:36:29;5.18;;;4.88;;
17997;SDS011;9124;48.144;17.098;2022-07-23T09:40:06;5.93;;;5.28;;
17997;SDS011;9124;48.144;17.098;2022-07-23T09:43:48;5.80;;;5.50;;
17997;SDS011;9124;48.144;17.098;2022-07-23T09:47:31;5.30;;;4.90;;
17997;SDS011;9124;48.144;17.098;2022-07-23T09:51:09;5.53;;;5.13;;
17997;SDS011;9124;48.144;17.098;2022-07-23T09:54:45;4.75;;;4.55;;
17997;SDS011;9124;48.144;17.098;2022-07-23T09:58:22;5.20;;;4.90;;
17997;SDS011;9124;48.144;17.098;2022-07-23T10:02:03;7.47;;;4.95;;
17997;SDS011;9124;48.144;17.098;2022-07-23T10:05:50;5.72;;;5.35;;
17997;SDS011;9124;48.144;17.098;2022-07-23T10:09:38;5.45;;;5.15;;
17997;SDS011;9124;48.144;17.098;2022-07-23T10:13:56;4.75;;;4.55;;
17997;SDS011;9124;48.144;17.098;2022-07-23T10:17:48;5.40;;;5.10;;
17997;SDS011;9124;48.144;17.098;2022-07-23T10:21:33;5.38;;;5.07;;
17997;SDS011;9124;48.144;17.098;2022-07-23T10:32:56;4.97;;;4.68;;
17997;SDS011;9124;48.144;17.098;2022-07-23T10:37:12;4.60;;;4.40;;
17997;SDS011;9124;48.144;17.098;2022-07-23T10:41:03;5.30;;;5.00;;
17997;SDS011;9124;48.144;17.098;2022-07-23T10:44:43;5.18;;;4.88;;
17997;SDS011;9124;48.144;17.098;2022-07-23T10:48:22;4.78;;;4.57;;
17997;SDS011;9124;48.144;17.098;2022-07-23T10:55:51;5.32;;;5.00;;
17997;SDS011;9124;48.144;17.098;2022-07-23T10:59:29;5.18;;;4.88;;
17997;SDS011;9124;48.144;17.098;2022-07-23T11:03:30;5.07;;;4.68;;
17997;SDS011;9124;48.144;17.098;2022-07-23T11:07:15;4.50;;;4.30;;
17997;SDS011;9124;48.144;17.098;2022-07-23T11:10:55;4.82;;;4.63;;
17997;SDS011;9124;48.144;17.098;2022-07-23T11:38:20;5.20;;;4.70;;
17997;SDS011;9124;48.144;17.098;2022-07-23T11:41:59;5.63;;;5.25;;
17997;SDS011;9124;48.144;17.098;2022-07-23T11:45:42;5.07;;;4.78;;
17997;SDS011;9124;48.144;17.098;2022-07-23T11:49:20;5.10;;;4.80;;
17997;SDS011;9124;48.144;17.098;2022-07-23T11:52:57;5.57;;;5.18;;
17997;SDS011;9124;48.144;17.098;2022-07-23T11:56:34;4.97;;;4.78;;
17997;SDS011;9124;48.144;17.098;2022-07-23T12:00:19;4.95;;;4.63;;
17997;SDS011;9124;48.144;17.098;2022-07-23T12:03:57;6.20;;;4.80;;
17997;SDS011;9124;48.144;17.098;2022-07-23T12:07:38;4.78;;;4.57;;
17997;SDS011;9124;48.144;17.098;2022-07-23T12:11:16;4.60;;;4.35;;
17997;SDS011;9124;48.144;17.098;2022-07-23T12:14:57;5.13;;;4.82;;
17997;SDS011;9124;48.144;17.098;2022-07-23T12:18:34;4.90;;;4.60;;
17997;SDS011;9124;48.144;17.098;2022-07-23T12:22:11;4.68;;;4.38;;
17997;SDS011;9124;48.144;17.098;2022-07-23T12:25:50;4.80;;;4.50;;
17997;SDS011;9124;48.144;17.098;2022-07-23T12:29:35;4.47;;;4.28;;
17997;SDS011;9124;48.144;17.098;2022-07-23T12:33:13;4.45;;;4.25;;
17997;SDS011;9124;48.144;17.098;2022-07-23T12:36:57;4.53;;;4.32;;
17997;SDS011;9124;48.144;17.098;2022-07-23T12:40:35;4.43;;;4.22;;
17997;SDS011;9124;48.144;17.098;2022-07-23T12:44:17;4.53;;;4.32;;
17997;SDS011;9124;48.144;17.098;2022-07-23T12:47:58;4.68;;;4.38;;
17997;SDS011;9124;48.144;17.098;2022-07-23T12:51:43;4.68;;;4.47;;
17997;SDS011;9124;48.144;17.098;2022-07-23T12:55:28;4.43;;;4.22;;
17997;SDS011;9124;48.144;17.098;2022-07-23T12:59:06;4.53;;;4.25;;
17997;SDS011;9124;48.144;17.098;2022-07-23T13:02:48;4.18;;;3.97;;
17997;SDS011;9124;48.144;17.098;2022-07-23T13:06:26;4.30;;;4.10;;
17997;SDS011;9124;48.144;17.098;2022-07-23T13:10:05;4.45;;;4.25;;
17997;SDS011;9124;48.144;17.098;2022-07-23T13:13:41;4.70;;;4.40;;
17997;SDS011;9124;48.144;17.098;2022-07-23T13:17:18;4.03;;;3.83;;
17997;SDS011;9124;48.144;17.098;2022-07-23T13:20:55;4.35;;;4.15;;
17997;SDS011;9124;48.144;17.098;2022-07-23T13:24:32;4.10;;;3.80;;
17997;SDS011;9124;48.144;17.098;2022-07-23T13:28:09;4.75;;;4.45;;
17997;SDS011;9124;48.144;17.098;2022-07-23T13:31:46;4.22;;;4.03;;
17997;SDS011;9124;48.144;17.098;2022-07-23T13:35:25;4.35;;;4.15;;
17997;SDS011;9124;48.144;17.098;2022-07-23T13:39:02;4.22;;;4.03;;
17997;SDS011;9124;48.144;17.098;2022-07-23T13:42:40;4.40;;;4.20;;
17997;SDS011;9124;48.144;17.098;2022-07-23T13:46:17;4.43;;;4.22;;
17997;SDS011;9124;48.144;17.098;2022-07-23T13:49:53;4.25;;;4.05;;
17997;SDS011;9124;48.144;17.098;2022-07-23T13:53:30;4.28;;;4.07;;
17997;SDS011;9124;48.144;17.098;2022-07-23T13:57:08;4.75;;;4.50;;
17997;SDS011;9124;48.144;17.098;2022-07-23T14:00:46;4.30;;;4.10;;
17997;SDS011;9124;48.144;17.098;2022-07-23T14:04:25;4.05;;;3.85;;
17997;SDS011;9124;48.144;17.098;2022-07-23T14:08:02;4.30;;;4.10;;
17997;SDS011;9124;48.144;17.098;2022-07-23T14:11:39;4.78;;;4.38;;
17997;SDS011;9124;48.144;17.098;2022-07-23T14:15:17;4.65;;;4.45;;
17997;SDS011;9124;48.144;17.098;2022-07-23T14:18:53;3.65;;;3.45;;
17997;SDS011;9124;48.144;17.098;2022-07-23T14:22:30;4.20;;;4.00;;
17997;SDS011;9124;48.144;17.098;2022-07-23T14:26:07;4.45;;;4.25;;
17997;SDS011;9124;48.144;17.098;2022-07-23T14:29:44;4.13;;;3.88;;
17997;SDS011;9124;48.144;17.098;2022-07-23T14:33:21;4.60;;;4.25;;
17997;SDS011;9124;48.144;17.098;2022-07-23T14:36:58;4.45;;;4.20;;
17997;SDS011;9124;48.144;17.098;2022-07-23T14:40:35;4.15;;;3.95;;
17997;SDS011;9124;48.144;17.098;2022-07-23T14:44:12;4.00;;;3.80;;
17997;SDS011;9124;48.144;17.098;2022-07-23T14:47:48;3.88;;;3.67;;
17997;SDS011;9124;48.144;17.098;2022-07-23T14:51:25;4.60;;;4.30;;
17997;SDS011;9124;48.144;17.098;2022-07-23T14:55:02;3.90;;;3.70;;
17997;SDS011;9124;48.144;17.098;2022-07-23T14:58:39;4.38;;;4.18;;
17997;SDS011;9124;48.144;17.098;2022-07-23T15:02:17;4.72;;;4.43;;
17997;SDS011;9124;48.144;17.098;2022-07-23T15:05:53;3.83;;;3.63;;
17997;SDS011;9124;48.144;17.098;2022-07-23T15:09:30;4.13;;;3.92;;
17997;SDS011;9124;48.144;17.098;2022-07-23T15:13:07;4.50;;;4.30;;
17997;SDS011;9124;48.144;17.098;2022-07-23T15:16:44;4.40;;;4.20;;
17997;SDS011;9124;48.144;17.098;2022-07-23T15:20:20;4.60;;;4.30;;
17997;SDS011;9124;48.144;17.098;2022-07-23T15:23:57;4.47;;;4.20;;
17997;SDS011;9124;48.144;17.098;2022-07-23T15:27:34;4.15;;;3.95;;
17997;SDS011;9124;48.144;17.098;2022-07-23T15:31:11;4.25;;;4.05;;
17997;SDS011;9124;48.144;17.098;2022-07-23T15:34:48;4.03;;;3.83;;
17997;SDS011;9124;48.144;17.098;2022-07-23T15:38:26;4.10;;;3.90;;
17997;SDS011;9124;48.144;17.098;2022-07-23T15:42:03;4.00;;;3.80;;
17997;SDS011;9124;48.144;17.098;2022-07-23T15:45:40;5.07;;;3.85;;
17997;SDS011;9124;48.144;17.098;2022-07-23T15:49:17;4.03;;;3.80;;
17997;SDS011;9124;48.144;17.098;2022-07-23T15:52:54;3.80;;;3.60;;
17997;SDS011;9124;48.144;17.098;2022-07-23T15:56:31;4.00;;;3.80;;
17997;SDS011;9124;48.144;17.098;2022-07-23T16:00:09;4.00;;;3.80;;
17997;SDS011;9124;48.144;17.098;2022-07-23T16:03:45;4.00;;;3.80;;
17997;SDS011;9124;48.144;17.098;2022-07-23T16:07:23;3.80;;;3.70;;
17997;SDS011;9124;48.144;17.098;2022-07-23T16:10:59;3.22;;;3.13;;
17997;SDS011;9124;48.144;17.098;2022-07-23T16:14:36;3.70;;;3.50;;
17997;SDS011;9124;48.144;17.098;2022-07-23T16:18:13;3.40;;;3.30;;
17997;SDS011;9124;48.144;17.098;2022-07-23T16:21:50;3.47;;;3.28;;
17997;SDS011;9124;48.144;17.098;2022-07-23T16:25:27;3.90;;;3.70;;
17997;SDS011;9124;48.144;17.098;2022-07-23T16:29:04;3.50;;;3.40;;
17997;SDS011;9124;48.144;17.098;2022-07-23T16:32:40;3.67;;;3.47;;
17997;SDS011;9124;48.144;17.098;2022-07-23T16:36:18;4.13;;;3.92;;
17997;SDS011;9124;48.144;17.098;2022-07-23T16:39:57;3.65;;;3.45;;
17997;SDS011;9124;48.144;17.098;2022-07-23T16:43:35;3.72;;;3.60;;
17997;SDS011;9124;48.144;17.098;2022-07-23T16:47:12;3.92;;;3.72;;
17997;SDS011;9124;48.144;17.098;2022-07-23T16:50:49;3.50;;;3.30;;
17997;SDS011;9124;48.144;17.098;2022-07-23T16:54:26;3.83;;;3.63;;
17997;SDS011;9124;48.144;17.098;2022-07-23T16:58:04;3.25;;;3.15;;
17997;SDS011;9124;48.144;17.098;2022-07-23T17:01:41;3.10;;;3.00;;
17997;SDS011;9124;48.144;17.098;2022-07-23T17:05:18;3.20;;;3.00;;
17997;SDS011;9124;48.144;17.098;2022-07-23T17:08:55;3.35;;;3.25;;
17997;SDS011;9124;48.144;17.098;2022-07-23T17:12:32;3.78;;;3.58;;
17997;SDS011;9124;48.144;17.098;2022-07-23T17:16:09;3.53;;;3.33;;
17997;SDS011;9124;48.144;17.098;2022-07-23T17:19:46;3.70;;;3.50;;
17997;SDS011;9124;48.144;17.098;2022-07-23T17:23:22;3.30;;;3.10;;
17997;SDS011;9124;48.144;17.098;2022-07-23T17:26:59;3.17;;;3.08;;
17997;SDS011;9124;48.144;17.098;2022-07-23T17:30:36;3.25;;;3.05;;
17997;SDS011;9124;48.144;17.098;2022-07-23T17:34:13;3.40;;;3.20;;
17997;SDS011;9124;48.144;17.098;2022-07-23T17:37:50;3.50;;;3.30;;
17997;SDS011;9124;48.144;17.098;2022-07-23T17:41:27;3.10;;;3.00;;
17997;SDS011;9124;48.144;17.098;2022-07-23T17:45:05;3.20;;;3.08;;
17997;SDS011;9124;48.144;17.098;2022-07-23T17:48:42;2.95;;;2.85;;
17997;SDS011;9124;48.144;17.098;2022-07-23T17:52:19;3.10;;;2.97;;
17997;SDS011;9124;48.144;17.098;2022-07-23T17:55:57;3.40;;;3.20;;
17997;SDS011;9124;48.144;17.098;2022-07-23T17:59:35;3.22;;;3.13;;
17997;SDS011;9124;48.144;17.098;2022-07-23T18:03:12;3.50;;;3.30;;
17997;SDS011;9124;48.144;17.098;2022-07-23T18:06:49;3.00;;;2.90;;
17997;SDS011;9124;48.144;17.098;2022-07-23T18:10:28;3.30;;;3.20;;
17997;SDS011;9124;48.144;17.098;2022-07-23T18:14:06;3.10;;;3.00;;
17997;SDS011;9124;48.144;17.098;2022-07-23T18:17:45;3.13;;;3.03;;
17997;SDS011;9124;48.144;17.098;2022-07-23T18:21:22;2.90;;;2.80;;
17997;SDS011;9124;48.144;17.098;2022-07-23T18:24:59;3.13;;;2.92;;
17997;SDS011;9124;48.144;17.098;2022-07-23T18:28:36;3.28;;;3.10;;
17997;SDS011;9124;48.144;17.098;2022-07-23T18:32:13;3.40;;;3.20;;
17997;SDS011;9124;48.144;17.098;2022-07-23T18:35:50;3.38;;;3.17;;
17997;SDS011;9124;48.144;17.098;2022-07-23T18:39:27;3.00;;;2.80;;
17997;SDS011;9124;48.144;17.098;2022-07-23T18:43:04;2.85;;;2.75;;
17997;SDS011;9124;48.144;17.098;2022-07-23T18:46:41;3.47;;;3.22;;
17997;SDS011;9124;48.144;17.098;2022-07-23T18:50:19;2.85;;;2.75;;
17997;SDS011;9124;48.144;17.098;2022-07-23T18:53:56;3.53;;;3.33;;
17997;SDS011;9124;48.144;17.098;2022-07-23T18:57:33;3.03;;;2.90;;
17997;SDS011;9124;48.144;17.098;2022-07-23T19:01:10;3.33;;;3.22;;
17997;SDS011;9124;48.144;17.098;2022-07-23T19:04:48;4.28;;;3.80;;
17997;SDS011;9124;48.144;17.098;2022-07-23T19:08:26;4.30;;;3.90;;
17997;SDS011;9124;48.144;17.098;2022-07-23T19:12:02;5.95;;;4.43;;
17997;SDS011;9124;48.144;17.098;2022-07-23T19:15:40;4.88;;;4.57;;
17997;SDS011;9124;48.144;17.098;2022-07-23T19:19:17;4.55;;;4.25;;
17997;SDS011;9124;48.144;17.098;2022-07-23T19:22:54;4.80;;;4.05;;
17997;SDS011;9124;48.144;17.098;2022-07-23T19:26:31;4.85;;;4.50;;
17997;SDS011;9124;48.144;17.098;2022-07-23T19:30:09;4.80;;;4.35;;
17997;SDS011;9124;48.144;17.098;2022-07-23T19:33:46;5.55;;;5.03;;
17997;SDS011;9124;48.144;17.098;2022-07-23T19:37:25;5.03;;;4.68;;
17997;SDS011;9124;48.144;17.098;2022-07-23T19:41:01;7.47;;;4.53;;
17997;SDS011;9124;48.144;17.098;2022-07-23T19:44:38;6.82;;;4.80;;
17997;SDS011;9124;48.144;17.098;2022-07-23T19:48:15;5.95;;;4.68;;
17997;SDS011;9124;48.144;17.098;2022-07-23T19:51:52;6.38;;;4.78;;
17997;SDS011;9124;48.144;17.098;2022-07-23T19:55:29;6.75;;;4.63;;
17997;SDS011;9124;48.144;17.098;2022-07-23T19:59:06;7.03;;;5.05;;
17997;SDS011;9124;48.144;17.098;2022-07-23T20:02:44;8.82;;;5.10;;
17997;SDS011;9124;48.144;17.098;2022-07-23T20:06:20;4.88;;;4.57;;
17997;SDS011;9124;48.144;17.098;2022-07-23T20:09:57;9.25;;;4.68;;
17997;SDS011;9124;48.144;17.098;2022-07-23T20:13:34;4.90;;;4.50;;
17997;SDS011;9124;48.144;17.098;2022-07-23T20:17:11;5.05;;;4.63;;
17997;SDS011;9124;48.144;17.098;2022-07-23T20:20:48;4.53;;;4.18;;
17997;SDS011;9124;48.144;17.098;2022-07-23T20:24:25;12.85;;;4.60;;
17997;SDS011;9124;48.144;17.098;2022-07-23T20:28:02;4.93;;;4.35;;
17997;SDS011;9124;48.144;17.098;2022-07-23T20:31:39;5.60;;;4.68;;
17997;SDS011;9124;48.144;17.098;2022-07-23T20:35:16;4.90;;;4.50;;
17997;SDS011;9124;48.144;17.098;2022-07-23T20:38:53;5.40;;;4.90;;
17997;SDS011;9124;48.144;17.098;2022-07-23T20:42:30;5.22;;;4.72;;
17997;SDS011;9124;48.144;17.098;2022-07-23T20:46:06;5.57;;;5.00;;
17997;SDS011;9124;48.144;17.098;2022-07-23T20:49:43;5.47;;;4.97;;
17997;SDS011;9124;48.144;17.098;2022-07-23T20:53:22;5.70;;;5.25;;
17997;SDS011;9124;48.144;17.098;2022-07-23T20:56:59;9.18;;;4.78;;
17997;SDS011;9124;48.144;17.098;2022-07-23T21:00:36;5.82;;;5.40;;
17997;SDS011;9124;48.144;17.098;2022-07-23T21:04:12;5.97;;;5.43;;
17997;SDS011;9124;48.144;17.098;2022-07-23T21:07:49;5.78;;;5.20;;
17997;SDS011;9124;48.144;17.098;2022-07-23T21:11:26;8.63;;;5.60;;
17997;SDS011;9124;48.144;17.098;2022-07-23T21:15:04;6.45;;;5.82;;
17997;SDS011;9124;48.144;17.098;2022-07-23T21:18:41;5.80;;;5.18;;
17997;SDS011;9124;48.144;17.098;2022-07-23T21:22:18;7.55;;;5.18;;
17997;SDS011;9124;48.144;17.098;2022-07-23T21:25:55;6.78;;;5.70;;
17997;SDS011;9124;48.144;17.098;2022-07-23T21:29:32;8.20;;;5.80;;
17997;SDS011;9124;48.144;17.098;2022-07-23T21:33:09;6.47;;;5.97;;
17997;SDS011;9124;48.144;17.098;2022-07-23T21:36:46;9.48;;;5.47;;
17997;SDS011;9124;48.144;17.098;2022-07-23T21:40:23;6.75;;;5.50;;
17997;SDS011;9124;48.144;17.098;2022-07-23T21:44:00;5.75;;;5.18;;
17997;SDS011;9124;48.144;17.098;2022-07-23T21:47:37;8.18;;;5.88;;
17997;SDS011;9124;48.144;17.098;2022-07-23T21:51:13;8.05;;;5.25;;
17997;SDS011;9124;48.144;17.098;2022-07-23T21:54:50;6.72;;;5.97;;
17997;SDS011;9124;48.144;17.098;2022-07-23T21:58:27;6.38;;;5.75;;
17997;SDS011;9124;48.144;17.098;2022-07-23T22:02:04;8.07;;;6.10;;
17997;SDS011;9124;48.144;17.098;2022-07-23T22:05:41;6.32;;;5.60;;
17997;SDS011;9124;48.144;17.098;2022-07-23T22:09:18;6.43;;;5.72;;
17997;SDS011;9124;48.144;17.098;2022-07-23T22:12:55;11.13;;;5.72;;
17997;SDS011;9124;48.144;17.098;2022-07-23T22:16:32;5.55;;;5.15;;
17997;SDS011;9124;48.144;17.098;2022-07-23T22:20:09;6.32;;;5.55;;
17997;SDS011;9124;48.144;17.098;2022-07-23T22:23:47;7.63;;;5.50;;
17997;SDS011;9124;48.144;17.098;2022-07-23T22:27:24;12.18;;;6.47;;